This is the latest recevied weather packets stored in our database for station/object DD8XX-10. If no packets are shown the sender has not sent any weather packets the latest 10 day(s).
| Time | Temp. | Humidity | Pressure | Rain* | Wind** | Luminosity | Snow |
|---|---|---|---|---|---|---|---|
| 1777641117 | 20° C | 24% | 1028.6 hPa | - | - | - | - |
| 1777640217 | 20° C | 24% | 1028.7 hPa | - | - | - | - |
| 1777639317 | 20° C | 25% | 1029 hPa | - | - | - | - |
| 1777638417 | 19.44° C | 26% | 1029 hPa | - | - | - | - |
| 1777637517 | 19.44° C | 27% | 1028.9 hPa | - | - | - | - |
| 1777636617 | 18.89° C | 27% | 1029.2 hPa | - | - | - | - |
| 1777635717 | 18.89° C | 28% | 1029.2 hPa | - | - | - | - |
| 1777634817 | 18.89° C | 27% | 1029.3 hPa | - | - | - | - |
| 1777633917 | 19.44° C | 25% | 1029.3 hPa | - | - | - | - |
| 1777633017 | 19.44° C | 24% | 1029.4 hPa | - | - | - | - |
| 1777632116 | 18.89° C | 25% | 1029.5 hPa | - | - | - | - |
| 1777631216 | 18.89° C | 26% | 1029.7 hPa | - | - | - | - |
| 1777630316 | 18.33° C | 26% | 1029.7 hPa | - | - | - | - |
| 1777629416 | 18.33° C | 27% | 1029.8 hPa | - | - | - | - |
| 1777628516 | 17.22° C | 30% | 1030 hPa | - | - | - | - |
| 1777627616 | 17.78° C | 29% | 1030.1 hPa | - | - | - | - |
| 1777626716 | 16.11° C | 30% | 1030.3 hPa | - | - | - | - |
| 1777625815 | 16.11° C | 30% | 1030.3 hPa | - | - | - | - |
| 1777624915 | 15.56° C | 30% | 1030.4 hPa | - | - | - | - |
| 1777624015 | 15° C | 31% | 1030.3 hPa | - | - | - | - |
| 1777623115 | 15° C | 31% | 1030.3 hPa | - | - | - | - |
| 1777622215 | 14.44° C | 31% | 1030.3 hPa | - | - | - | - |
| 1777621315 | 13.89° C | 31% | 1030.4 hPa | - | - | - | - |
| 1777620415 | 13.33° C | 34% | 1030.4 hPa | - | - | - | - |
| 1777619515 | 12.78° C | 36% | 1030.5 hPa | - | - | - | - |
* Rain since midnight (hover to see other rain measurements)
** Current wind speed in m/s (hover to see current wind gust speed)